sensor_id;sensor_type;location;lat;lon;timestamp;P1;durP1;ratioP1;P2;durP2;ratioP2
4630;SDS011;2328;48.170;11.602;2022-10-31T00:01:36;42.77;;;11.03;;
4630;SDS011;2328;48.170;11.602;2022-10-31T00:04:05;25.97;;;9.90;;
4630;SDS011;2328;48.170;11.602;2022-10-31T00:06:35;20.37;;;7.10;;
4630;SDS011;2328;48.170;11.602;2022-10-31T00:09:03;10.60;;;4.63;;
4630;SDS011;2328;48.170;11.602;2022-10-31T00:11:34;15.20;;;3.83;;
4630;SDS011;2328;48.170;11.602;2022-10-31T00:14:03;10.63;;;5.73;;
4630;SDS011;2328;48.170;11.602;2022-10-31T00:16:32;8.90;;;4.30;;
4630;SDS011;2328;48.170;11.602;2022-10-31T00:19:02;14.97;;;4.23;;
4630;SDS011;2328;48.170;11.602;2022-10-31T00:21:33;7.37;;;3.43;;
4630;SDS011;2328;48.170;11.602;2022-10-31T00:24:02;5.60;;;3.30;;
4630;SDS011;2328;48.170;11.602;2022-10-31T00:26:31;5.30;;;3.40;;
4630;SDS011;2328;48.170;11.602;2022-10-31T00:29:02;9.50;;;3.13;;
4630;SDS011;2328;48.170;11.602;2022-10-31T00:31:31;9.47;;;3.43;;
4630;SDS011;2328;48.170;11.602;2022-10-31T00:34:00;6.87;;;3.37;;
4630;SDS011;2328;48.170;11.602;2022-10-31T00:36:30;4.73;;;3.00;;
4630;SDS011;2328;48.170;11.602;2022-10-31T00:38:58;15.27;;;4.13;;
4630;SDS011;2328;48.170;11.602;2022-10-31T00:41:27;10.20;;;2.97;;
4630;SDS011;2328;48.170;11.602;2022-10-31T00:43:57;5.50;;;3.17;;
4630;SDS011;2328;48.170;11.602;2022-10-31T00:46:27;4.83;;;2.97;;
4630;SDS011;2328;48.170;11.602;2022-10-31T00:48:56;4.20;;;2.80;;
4630;SDS011;2328;48.170;11.602;2022-10-31T00:51:24;6.90;;;2.83;;
4630;SDS011;2328;48.170;11.602;2022-10-31T00:53:53;7.40;;;2.70;;
4630;SDS011;2328;48.170;11.602;2022-10-31T00:56:21;8.73;;;2.70;;
4630;SDS011;2328;48.170;11.602;2022-10-31T00:58:49;7.70;;;3.43;;
4630;SDS011;2328;48.170;11.602;2022-10-31T01:01:18;6.73;;;3.63;;
4630;SDS011;2328;48.170;11.602;2022-10-31T01:03:48;4.53;;;2.97;;
4630;SDS011;2328;48.170;11.602;2022-10-31T01:06:16;11.20;;;4.23;;
4630;SDS011;2328;48.170;11.602;2022-10-31T01:08:46;6.50;;;2.60;;
4630;SDS011;2328;48.170;11.602;2022-10-31T01:11:15;5.73;;;3.37;;
4630;SDS011;2328;48.170;11.602;2022-10-31T01:13:45;13.43;;;3.03;;
4630;SDS011;2328;48.170;11.602;2022-10-31T01:16:18;12.90;;;3.30;;
4630;SDS011;2328;48.170;11.602;2022-10-31T01:18:49;6.93;;;3.60;;
4630;SDS011;2328;48.170;11.602;2022-10-31T01:21:18;10.17;;;3.37;;
4630;SDS011;2328;48.170;11.602;2022-10-31T01:23:49;7.20;;;2.60;;
4630;SDS011;2328;48.170;11.602;2022-10-31T01:26:18;5.57;;;3.20;;
4630;SDS011;2328;48.170;11.602;2022-10-31T01:28:49;7.03;;;2.83;;
4630;SDS011;2328;48.170;11.602;2022-10-31T01:31:20;6.57;;;2.70;;
4630;SDS011;2328;48.170;11.602;2022-10-31T01:33:53;2.77;;;2.40;;
4630;SDS011;2328;48.170;11.602;2022-10-31T01:36:23;8.67;;;2.90;;
4630;SDS011;2328;48.170;11.602;2022-10-31T01:38:53;4.23;;;2.63;;
4630;SDS011;2328;48.170;11.602;2022-10-31T01:41:25;7.20;;;3.10;;
4630;SDS011;2328;48.170;11.602;2022-10-31T01:43:57;11.47;;;3.23;;
4630;SDS011;2328;48.170;11.602;2022-10-31T01:46:29;4.70;;;2.73;;
4630;SDS011;2328;48.170;11.602;2022-10-31T01:49:04;4.97;;;3.40;;
4630;SDS011;2328;48.170;11.602;2022-10-31T01:51:38;6.40;;;3.13;;
4630;SDS011;2328;48.170;11.602;2022-10-31T01:54:12;6.00;;;2.93;;
4630;SDS011;2328;48.170;11.602;2022-10-31T01:56:45;6.03;;;2.80;;
4630;SDS011;2328;48.170;11.602;2022-10-31T01:59:17;8.60;;;3.00;;
4630;SDS011;2328;48.170;11.602;2022-10-31T02:01:48;4.37;;;2.73;;
4630;SDS011;2328;48.170;11.602;2022-10-31T02:04:21;6.53;;;2.80;;
4630;SDS011;2328;48.170;11.602;2022-10-31T02:06:57;5.97;;;3.00;;
4630;SDS011;2328;48.170;11.602;2022-10-31T02:09:29;4.97;;;2.23;;
4630;SDS011;2328;48.170;11.602;2022-10-31T02:12:00;3.30;;;2.60;;
4630;SDS011;2328;48.170;11.602;2022-10-31T02:14:30;7.13;;;3.47;;
4630;SDS011;2328;48.170;11.602;2022-10-31T02:16:58;4.17;;;2.27;;
4630;SDS011;2328;48.170;11.602;2022-10-31T02:19:30;6.40;;;2.60;;
4630;SDS011;2328;48.170;11.602;2022-10-31T02:22:07;9.23;;;3.37;;
4630;SDS011;2328;48.170;11.602;2022-10-31T02:24:45;3.67;;;2.53;;
4630;SDS011;2328;48.170;11.602;2022-10-31T02:27:38;6.50;;;2.30;;
4630;SDS011;2328;48.170;11.602;2022-10-31T02:30:24;5.70;;;3.20;;
4630;SDS011;2328;48.170;11.602;2022-10-31T02:33:07;4.87;;;1.93;;
4630;SDS011;2328;48.170;11.602;2022-10-31T02:35:48;4.47;;;2.40;;
4630;SDS011;2328;48.170;11.602;2022-10-31T02:38:26;3.27;;;2.40;;
4630;SDS011;2328;48.170;11.602;2022-10-31T02:41:08;3.53;;;2.07;;
4630;SDS011;2328;48.170;11.602;2022-10-31T02:43:44;6.07;;;3.30;;
4630;SDS011;2328;48.170;11.602;2022-10-31T02:46:23;5.87;;;2.10;;
4630;SDS011;2328;48.170;11.602;2022-10-31T02:49:00;3.70;;;2.70;;
4630;SDS011;2328;48.170;11.602;2022-10-31T02:51:33;3.70;;;2.43;;
4630;SDS011;2328;48.170;11.602;2022-10-31T02:54:02;4.90;;;2.03;;
4630;SDS011;2328;48.170;11.602;2022-10-31T02:56:30;2.90;;;2.50;;
4630;SDS011;2328;48.170;11.602;2022-10-31T02:59:00;2.70;;;1.93;;
4630;SDS011;2328;48.170;11.602;2022-10-31T03:01:37;3.87;;;1.80;;
4630;SDS011;2328;48.170;11.602;2022-10-31T03:04:31;3.20;;;2.37;;
4630;SDS011;2328;48.170;11.602;2022-10-31T03:07:16;3.70;;;2.10;;
4630;SDS011;2328;48.170;11.602;2022-10-31T03:09:55;4.80;;;2.70;;
4630;SDS011;2328;48.170;11.602;2022-10-31T03:12:35;5.13;;;2.27;;
4630;SDS011;2328;48.170;11.602;2022-10-31T03:15:14;4.57;;;2.20;;
4630;SDS011;2328;48.170;11.602;2022-10-31T03:17:50;2.77;;;2.07;;
4630;SDS011;2328;48.170;11.602;2022-10-31T03:20:28;4.40;;;2.30;;
4630;SDS011;2328;48.170;11.602;2022-10-31T03:23:01;6.33;;;2.67;;
4630;SDS011;2328;48.170;11.602;2022-10-31T03:25:30;4.27;;;2.07;;
4630;SDS011;2328;48.170;11.602;2022-10-31T03:28:02;5.63;;;2.60;;
4630;SDS011;2328;48.170;11.602;2022-10-31T03:30:33;6.40;;;2.97;;
4630;SDS011;2328;48.170;11.602;2022-10-31T03:33:05;4.33;;;2.47;;
4630;SDS011;2328;48.170;11.602;2022-10-31T03:35:38;3.50;;;2.27;;
4630;SDS011;2328;48.170;11.602;2022-10-31T03:38:09;5.43;;;2.63;;
4630;SDS011;2328;48.170;11.602;2022-10-31T03:40:39;5.23;;;2.10;;
4630;SDS011;2328;48.170;11.602;2022-10-31T03:43:12;4.67;;;2.60;;
4630;SDS011;2328;48.170;11.602;2022-10-31T03:45:54;2.20;;;1.53;;
4630;SDS011;2328;48.170;11.602;2022-10-31T03:48:23;10.10;;;2.27;;
4630;SDS011;2328;48.170;11.602;2022-10-31T03:50:57;2.87;;;1.80;;
4630;SDS011;2328;48.170;11.602;2022-10-31T03:53:30;25.00;;;2.30;;
4630;SDS011;2328;48.170;11.602;2022-10-31T03:56:02;3.93;;;2.07;;
4630;SDS011;2328;48.170;11.602;2022-10-31T03:58:36;5.50;;;2.00;;
4630;SDS011;2328;48.170;11.602;2022-10-31T04:01:09;3.93;;;2.60;;
4630;SDS011;2328;48.170;11.602;2022-10-31T04:03:42;2.33;;;1.93;;
4630;SDS011;2328;48.170;11.602;2022-10-31T04:06:14;2.97;;;2.20;;
4630;SDS011;2328;48.170;11.602;2022-10-31T04:08:46;4.97;;;2.20;;
4630;SDS011;2328;48.170;11.602;2022-10-31T04:11:19;3.03;;;1.90;;
4630;SDS011;2328;48.170;11.602;2022-10-31T04:13:52;5.77;;;2.10;;
4630;SDS011;2328;48.170;11.602;2022-10-31T04:16:22;6.77;;;2.33;;
4630;SDS011;2328;48.170;11.602;2022-10-31T04:18:52;7.13;;;2.50;;
4630;SDS011;2328;48.170;11.602;2022-10-31T04:21:30;12.97;;;1.90;;
4630;SDS011;2328;48.170;11.602;2022-10-31T04:24:01;6.17;;;1.90;;
4630;SDS011;2328;48.170;11.602;2022-10-31T04:26:30;12.43;;;2.50;;
4630;SDS011;2328;48.170;11.602;2022-10-31T04:28:59;9.13;;;2.30;;
4630;SDS011;2328;48.170;11.602;2022-10-31T04:31:27;5.17;;;1.83;;
4630;SDS011;2328;48.170;11.602;2022-10-31T04:33:56;3.27;;;2.10;;
4630;SDS011;2328;48.170;11.602;2022-10-31T04:36:24;1.63;;;1.53;;
4630;SDS011;2328;48.170;11.602;2022-10-31T04:38:54;2.87;;;1.90;;
4630;SDS011;2328;48.170;11.602;2022-10-31T04:41:23;4.40;;;2.00;;
4630;SDS011;2328;48.170;11.602;2022-10-31T04:43:52;2.53;;;1.50;;
4630;SDS011;2328;48.170;11.602;2022-10-31T04:46:21;8.77;;;2.23;;
4630;SDS011;2328;48.170;11.602;2022-10-31T04:48:49;9.33;;;1.70;;
4630;SDS011;2328;48.170;11.602;2022-10-31T04:51:18;4.53;;;1.87;;
4630;SDS011;2328;48.170;11.602;2022-10-31T04:53:47;8.13;;;1.90;;
4630;SDS011;2328;48.170;11.602;2022-10-31T04:56:18;5.67;;;2.13;;
4630;SDS011;2328;48.170;11.602;2022-10-31T04:58:46;5.07;;;2.10;;
4630;SDS011;2328;48.170;11.602;2022-10-31T05:01:15;2.50;;;1.77;;
4630;SDS011;2328;48.170;11.602;2022-10-31T05:03:43;4.13;;;2.20;;
4630;SDS011;2328;48.170;11.602;2022-10-31T05:06:12;7.60;;;2.47;;
4630;SDS011;2328;48.170;11.602;2022-10-31T05:08:40;2.30;;;1.63;;
4630;SDS011;2328;48.170;11.602;2022-10-31T05:11:08;4.30;;;2.07;;
4630;SDS011;2328;48.170;11.602;2022-10-31T05:13:38;1.47;;;1.23;;
4630;SDS011;2328;48.170;11.602;2022-10-31T05:16:07;2.60;;;1.80;;
4630;SDS011;2328;48.170;11.602;2022-10-31T05:18:35;2.77;;;1.73;;
4630;SDS011;2328;48.170;11.602;2022-10-31T05:21:03;6.30;;;1.70;;
4630;SDS011;2328;48.170;11.602;2022-10-31T05:23:32;2.97;;;2.10;;
4630;SDS011;2328;48.170;11.602;2022-10-31T05:26:00;5.93;;;1.73;;
4630;SDS011;2328;48.170;11.602;2022-10-31T05:28:28;3.73;;;1.70;;
4630;SDS011;2328;48.170;11.602;2022-10-31T05:30:58;2.47;;;1.33;;
4630;SDS011;2328;48.170;11.602;2022-10-31T05:33:26;3.30;;;2.23;;
4630;SDS011;2328;48.170;11.602;2022-10-31T05:35:55;4.20;;;1.87;;
4630;SDS011;2328;48.170;11.602;2022-10-31T05:38:23;2.70;;;1.53;;
4630;SDS011;2328;48.170;11.602;2022-10-31T05:40:53;2.47;;;1.43;;
4630;SDS011;2328;48.170;11.602;2022-10-31T05:43:24;11.23;;;2.20;;
4630;SDS011;2328;48.170;11.602;2022-10-31T05:45:52;8.07;;;1.80;;
4630;SDS011;2328;48.170;11.602;2022-10-31T05:48:23;3.60;;;2.10;;
4630;SDS011;2328;48.170;11.602;2022-10-31T05:50:52;3.20;;;1.80;;
4630;SDS011;2328;48.170;11.602;2022-10-31T05:53:20;3.67;;;1.77;;
4630;SDS011;2328;48.170;11.602;2022-10-31T05:55:48;3.00;;;1.57;;
4630;SDS011;2328;48.170;11.602;2022-10-31T05:58:16;3.97;;;2.03;;
4630;SDS011;2328;48.170;11.602;2022-10-31T06:00:45;2.50;;;1.77;;
4630;SDS011;2328;48.170;11.602;2022-10-31T06:03:14;2.00;;;1.50;;
4630;SDS011;2328;48.170;11.602;2022-10-31T06:05:44;6.27;;;2.10;;
4630;SDS011;2328;48.170;11.602;2022-10-31T06:08:19;3.33;;;1.40;;
4630;SDS011;2328;48.170;11.602;2022-10-31T06:10:47;12.27;;;2.20;;
4630;SDS011;2328;48.170;11.602;2022-10-31T06:13:16;6.60;;;1.37;;
4630;SDS011;2328;48.170;11.602;2022-10-31T06:15:45;1.63;;;1.20;;
4630;SDS011;2328;48.170;11.602;2022-10-31T06:18:15;3.20;;;1.83;;
4630;SDS011;2328;48.170;11.602;2022-10-31T06:20:45;3.47;;;2.23;;
4630;SDS011;2328;48.170;11.602;2022-10-31T06:23:13;3.23;;;1.43;;
4630;SDS011;2328;48.170;11.602;2022-10-31T06:25:43;1.77;;;1.13;;
4630;SDS011;2328;48.170;11.602;2022-10-31T06:28:15;4.90;;;1.90;;
4630;SDS011;2328;48.170;11.602;2022-10-31T06:30:44;4.50;;;1.47;;
4630;SDS011;2328;48.170;11.602;2022-10-31T06:33:13;7.23;;;1.80;;
4630;SDS011;2328;48.170;11.602;2022-10-31T06:35:45;2.40;;;1.33;;
4630;SDS011;2328;48.170;11.602;2022-10-31T06:38:14;4.87;;;2.20;;
4630;SDS011;2328;48.170;11.602;2022-10-31T06:40:42;2.57;;;1.80;;
4630;SDS011;2328;48.170;11.602;2022-10-31T06:43:11;6.00;;;1.97;;
4630;SDS011;2328;48.170;11.602;2022-10-31T06:45:41;3.03;;;2.30;;
4630;SDS011;2328;48.170;11.602;2022-10-31T06:48:09;1.33;;;1.23;;
4630;SDS011;2328;48.170;11.602;2022-10-31T06:50:44;4.00;;;2.50;;
4630;SDS011;2328;48.170;11.602;2022-10-31T06:53:15;4.67;;;2.30;;
4630;SDS011;2328;48.170;11.602;2022-10-31T06:55:46;3.83;;;2.10;;
4630;SDS011;2328;48.170;11.602;2022-10-31T06:58:15;4.13;;;2.20;;
4630;SDS011;2328;48.170;11.602;2022-10-31T07:00:43;4.17;;;1.70;;
4630;SDS011;2328;48.170;11.602;2022-10-31T07:03:13;2.33;;;2.13;;
4630;SDS011;2328;48.170;11.602;2022-10-31T07:05:53;3.50;;;2.20;;
4630;SDS011;2328;48.170;11.602;2022-10-31T07:08:26;4.30;;;1.43;;
4630;SDS011;2328;48.170;11.602;2022-10-31T07:10:55;1.97;;;1.40;;
4630;SDS011;2328;48.170;11.602;2022-10-31T07:13:33;6.50;;;1.90;;
4630;SDS011;2328;48.170;11.602;2022-10-31T07:16:08;5.40;;;1.67;;
4630;SDS011;2328;48.170;11.602;2022-10-31T07:18:57;1.67;;;1.30;;
4630;SDS011;2328;48.170;11.602;2022-10-31T07:21:33;2.40;;;1.37;;
4630;SDS011;2328;48.170;11.602;2022-10-31T07:24:04;5.40;;;3.00;;
4630;SDS011;2328;48.170;11.602;2022-10-31T07:26:43;3.90;;;1.80;;
4630;SDS011;2328;48.170;11.602;2022-10-31T07:29:14;2.20;;;1.57;;
4630;SDS011;2328;48.170;11.602;2022-10-31T07:31:45;1.60;;;1.40;;
4630;SDS011;2328;48.170;11.602;2022-10-31T07:34:19;1.90;;;1.40;;
4630;SDS011;2328;48.170;11.602;2022-10-31T07:36:51;4.20;;;1.90;;
4630;SDS011;2328;48.170;11.602;2022-10-31T07:39:21;3.03;;;2.00;;
4630;SDS011;2328;48.170;11.602;2022-10-31T07:41:49;2.17;;;1.80;;
4630;SDS011;2328;48.170;11.602;2022-10-31T07:44:18;1.97;;;1.80;;
4630;SDS011;2328;48.170;11.602;2022-10-31T07:46:51;3.07;;;2.10;;
4630;SDS011;2328;48.170;11.602;2022-10-31T07:49:23;7.23;;;2.20;;
4630;SDS011;2328;48.170;11.602;2022-10-31T07:51:59;2.63;;;1.73;;
4630;SDS011;2328;48.170;11.602;2022-10-31T07:54:29;3.90;;;1.70;;
4630;SDS011;2328;48.170;11.602;2022-10-31T07:57:03;3.20;;;2.00;;
4630;SDS011;2328;48.170;11.602;2022-10-31T07:59:33;3.90;;;1.57;;
4630;SDS011;2328;48.170;11.602;2022-10-31T08:02:02;1.60;;;1.50;;
4630;SDS011;2328;48.170;11.602;2022-10-31T08:04:31;1.70;;;1.60;;
4630;SDS011;2328;48.170;11.602;2022-10-31T08:07:03;4.70;;;1.80;;
4630;SDS011;2328;48.170;11.602;2022-10-31T08:09:34;3.53;;;1.47;;
4630;SDS011;2328;48.170;11.602;2022-10-31T08:12:03;10.63;;;1.47;;
4630;SDS011;2328;48.170;11.602;2022-10-31T08:14:33;10.13;;;2.40;;
4630;SDS011;2328;48.170;11.602;2022-10-31T08:17:02;3.33;;;2.20;;
4630;SDS011;2328;48.170;11.602;2022-10-31T08:19:32;4.87;;;2.33;;
4630;SDS011;2328;48.170;11.602;2022-10-31T08:22:05;3.87;;;1.80;;
4630;SDS011;2328;48.170;11.602;2022-10-31T08:24:33;3.13;;;2.20;;
4630;SDS011;2328;48.170;11.602;2022-10-31T08:27:02;6.37;;;3.33;;
4630;SDS011;2328;48.170;11.602;2022-10-31T08:29:30;3.90;;;2.30;;
4630;SDS011;2328;48.170;11.602;2022-10-31T08:32:00;4.47;;;2.60;;
4630;SDS011;2328;48.170;11.602;2022-10-31T08:34:29;3.70;;;2.50;;
4630;SDS011;2328;48.170;11.602;2022-10-31T08:36:57;3.10;;;2.80;;
4630;SDS011;2328;48.170;11.602;2022-10-31T08:39:27;4.23;;;2.60;;
4630;SDS011;2328;48.170;11.602;2022-10-31T08:41:55;6.13;;;3.00;;
4630;SDS011;2328;48.170;11.602;2022-10-31T08:44:24;12.23;;;3.20;;
4630;SDS011;2328;48.170;11.602;2022-10-31T08:46:53;4.43;;;2.67;;
4630;SDS011;2328;48.170;11.602;2022-10-31T08:49:21;6.80;;;3.40;;
4630;SDS011;2328;48.170;11.602;2022-10-31T08:51:50;11.70;;;4.23;;
4630;SDS011;2328;48.170;11.602;2022-10-31T08:54:18;3.80;;;2.60;;
4630;SDS011;2328;48.170;11.602;2022-10-31T08:56:48;9.43;;;3.17;;
4630;SDS011;2328;48.170;11.602;2022-10-31T08:59:21;11.70;;;2.57;;
4630;SDS011;2328;48.170;11.602;2022-10-31T09:01:49;8.17;;;5.37;;
4630;SDS011;2328;48.170;11.602;2022-10-31T09:04:18;2.80;;;1.73;;
4630;SDS011;2328;48.170;11.602;2022-10-31T09:06:47;2.53;;;2.07;;
4630;SDS011;2328;48.170;11.602;2022-10-31T09:09:36;4.20;;;2.33;;
4630;SDS011;2328;48.170;11.602;2022-10-31T09:12:07;6.20;;;3.67;;
4630;SDS011;2328;48.170;11.602;2022-10-31T09:14:35;12.57;;;2.97;;
4630;SDS011;2328;48.170;11.602;2022-10-31T09:17:03;2.77;;;2.30;;
4630;SDS011;2328;48.170;11.602;2022-10-31T09:19:32;4.37;;;2.60;;
4630;SDS011;2328;48.170;11.602;2022-10-31T09:22:02;5.07;;;2.93;;
4630;SDS011;2328;48.170;11.602;2022-10-31T09:24:31;6.53;;;3.10;;
4630;SDS011;2328;48.170;11.602;2022-10-31T09:26:59;9.63;;;3.30;;
4630;SDS011;2328;48.170;11.602;2022-10-31T09:29:30;10.40;;;2.30;;
4630;SDS011;2328;48.170;11.602;2022-10-31T09:31:58;3.60;;;2.40;;
4630;SDS011;2328;48.170;11.602;2022-10-31T09:34:26;6.70;;;1.80;;
4630;SDS011;2328;48.170;11.602;2022-10-31T09:36:55;7.43;;;2.90;;
4630;SDS011;2328;48.170;11.602;2022-10-31T09:39:24;13.00;;;2.50;;
4630;SDS011;2328;48.170;11.602;2022-10-31T09:41:56;5.43;;;2.00;;
4630;SDS011;2328;48.170;11.602;2022-10-31T09:44:39;4.47;;;1.47;;
4630;SDS011;2328;48.170;11.602;2022-10-31T09:47:17;3.90;;;1.50;;
4630;SDS011;2328;48.170;11.602;2022-10-31T09:50:00;1.93;;;1.67;;
4630;SDS011;2328;48.170;11.602;2022-10-31T09:52:41;2.87;;;1.30;;
4630;SDS011;2328;48.170;11.602;2022-10-31T09:55:16;4.50;;;1.80;;
4630;SDS011;2328;48.170;11.602;2022-10-31T09:57:48;3.00;;;1.93;;
4630;SDS011;2328;48.170;11.602;2022-10-31T10:00:21;2.23;;;1.60;;
4630;SDS011;2328;48.170;11.602;2022-10-31T10:02:51;7.53;;;1.73;;
4630;SDS011;2328;48.170;11.602;2022-10-31T10:05:27;4.10;;;1.80;;
4630;SDS011;2328;48.170;11.602;2022-10-31T10:08:02;7.10;;;2.00;;
4630;SDS011;2328;48.170;11.602;2022-10-31T10:10:38;3.63;;;1.37;;
4630;SDS011;2328;48.170;11.602;2022-10-31T10:13:22;1.50;;;1.30;;
4630;SDS011;2328;48.170;11.602;2022-10-31T10:16:12;3.53;;;1.67;;
4630;SDS011;2328;48.170;11.602;2022-10-31T10:18:53;5.20;;;1.40;;
4630;SDS011;2328;48.170;11.602;2022-10-31T10:21:33;1.67;;;1.37;;
4630;SDS011;2328;48.170;11.602;2022-10-31T10:24:12;1.97;;;1.30;;
4630;SDS011;2328;48.170;11.602;2022-10-31T10:26:57;6.63;;;2.07;;
4630;SDS011;2328;48.170;11.602;2022-10-31T10:29:33;4.00;;;1.90;;
4630;SDS011;2328;48.170;11.602;2022-10-31T10:32:09;9.30;;;1.60;;
4630;SDS011;2328;48.170;11.602;2022-10-31T10:34:43;2.97;;;1.10;;
4630;SDS011;2328;48.170;11.602;2022-10-31T10:37:18;8.37;;;2.20;;
4630;SDS011;2328;48.170;11.602;2022-10-31T10:39:53;7.17;;;2.13;;
4630;SDS011;2328;48.170;11.602;2022-10-31T10:42:24;6.73;;;1.90;;
4630;SDS011;2328;48.170;11.602;2022-10-31T10:45:13;3.53;;;1.70;;
4630;SDS011;2328;48.170;11.602;2022-10-31T10:48:07;6.77;;;1.93;;
4630;SDS011;2328;48.170;11.602;2022-10-31T10:50:44;2.30;;;1.47;;
4630;SDS011;2328;48.170;11.602;2022-10-31T10:53:18;8.47;;;1.80;;
4630;SDS011;2328;48.170;11.602;2022-10-31T10:56:04;4.77;;;1.53;;
4630;SDS011;2328;48.170;11.602;2022-10-31T10:58:42;1.40;;;1.10;;
4630;SDS011;2328;48.170;11.602;2022-10-31T11:01:11;2.47;;;1.30;;
4630;SDS011;2328;48.170;11.602;2022-10-31T11:03:42;4.63;;;2.13;;
4630;SDS011;2328;48.170;11.602;2022-10-31T11:06:18;2.50;;;1.47;;
4630;SDS011;2328;48.170;11.602;2022-10-31T11:08:51;4.00;;;1.47;;
4630;SDS011;2328;48.170;11.602;2022-10-31T11:11:23;2.70;;;1.90;;
4630;SDS011;2328;48.170;11.602;2022-10-31T11:13:55;4.97;;;1.57;;
4630;SDS011;2328;48.170;11.602;2022-10-31T11:16:29;4.90;;;1.30;;
4630;SDS011;2328;48.170;11.602;2022-10-31T11:19:08;2.27;;;1.30;;
4630;SDS011;2328;48.170;11.602;2022-10-31T11:21:43;1.80;;;1.43;;
4630;SDS011;2328;48.170;11.602;2022-10-31T11:24:19;1.40;;;1.07;;
4630;SDS011;2328;48.170;11.602;2022-10-31T11:26:49;4.43;;;1.90;;
4630;SDS011;2328;48.170;11.602;2022-10-31T11:29:21;1.77;;;1.43;;
4630;SDS011;2328;48.170;11.602;2022-10-31T11:31:51;7.10;;;1.50;;
4630;SDS011;2328;48.170;11.602;2022-10-31T11:34:42;3.63;;;1.10;;
4630;SDS011;2328;48.170;11.602;2022-10-31T11:37:14;3.33;;;1.20;;
4630;SDS011;2328;48.170;11.602;2022-10-31T11:39:44;4.93;;;1.20;;
4630;SDS011;2328;48.170;11.602;2022-10-31T11:42:20;3.93;;;1.40;;
4630;SDS011;2328;48.170;11.602;2022-10-31T11:44:51;7.17;;;1.97;;
4630;SDS011;2328;48.170;11.602;2022-10-31T11:47:24;2.90;;;1.67;;
4630;SDS011;2328;48.170;11.602;2022-10-31T11:49:56;2.87;;;1.63;;
4630;SDS011;2328;48.170;11.602;2022-10-31T11:52:30;4.93;;;1.60;;
4630;SDS011;2328;48.170;11.602;2022-10-31T11:55:00;2.90;;;1.57;;
4630;SDS011;2328;48.170;11.602;2022-10-31T11:57:42;4.20;;;1.40;;
4630;SDS011;2328;48.170;11.602;2022-10-31T12:00:25;2.37;;;1.40;;
4630;SDS011;2328;48.170;11.602;2022-10-31T12:06:00;3.40;;;1.07;;
4630;SDS011;2328;48.170;11.602;2022-10-31T12:08:33;1.30;;;1.17;;
4630;SDS011;2328;48.170;11.602;2022-10-31T12:11:07;1.83;;;1.20;;
4630;SDS011;2328;48.170;11.602;2022-10-31T12:13:48;3.53;;;1.37;;
4630;SDS011;2328;48.170;11.602;2022-10-31T12:16:31;2.10;;;1.40;;
4630;SDS011;2328;48.170;11.602;2022-10-31T12:19:05;1.43;;;0.87;;
4630;SDS011;2328;48.170;11.602;2022-10-31T12:21:47;3.80;;;1.93;;
4630;SDS011;2328;48.170;11.602;2022-10-31T12:24:30;3.43;;;1.00;;
4630;SDS011;2328;48.170;11.602;2022-10-31T12:27:15;2.40;;;1.47;;
4630;SDS011;2328;48.170;11.602;2022-10-31T12:29:59;2.00;;;1.20;;
4630;SDS011;2328;48.170;11.602;2022-10-31T12:32:41;4.07;;;1.40;;
4630;SDS011;2328;48.170;11.602;2022-10-31T12:35:43;5.90;;;1.17;;
4630;SDS011;2328;48.170;11.602;2022-10-31T12:38:30;10.73;;;1.50;;
4630;SDS011;2328;48.170;11.602;2022-10-31T12:41:12;3.50;;;1.80;;
4630;SDS011;2328;48.170;11.602;2022-10-31T12:44:02;3.17;;;1.20;;
4630;SDS011;2328;48.170;11.602;2022-10-31T12:46:40;2.13;;;1.60;;
4630;SDS011;2328;48.170;11.602;2022-10-31T12:49:26;4.30;;;1.33;;
4630;SDS011;2328;48.170;11.602;2022-10-31T12:52:11;2.17;;;1.40;;
4630;SDS011;2328;48.170;11.602;2022-10-31T12:54:52;3.53;;;1.63;;
4630;SDS011;2328;48.170;11.602;2022-10-31T12:57:31;3.30;;;1.53;;
4630;SDS011;2328;48.170;11.602;2022-10-31T13:00:04;6.27;;;1.90;;
4630;SDS011;2328;48.170;11.602;2022-10-31T13:02:39;2.00;;;1.13;;
4630;SDS011;2328;48.170;11.602;2022-10-31T13:05:26;3.40;;;1.50;;
4630;SDS011;2328;48.170;11.602;2022-10-31T13:08:00;1.60;;;1.50;;
4630;SDS011;2328;48.170;11.602;2022-10-31T13:10:35;7.40;;;1.80;;
4630;SDS011;2328;48.170;11.602;2022-10-31T13:13:11;8.70;;;2.03;;
4630;SDS011;2328;48.170;11.602;2022-10-31T13:15:45;2.23;;;1.40;;
4630;SDS011;2328;48.170;11.602;2022-10-31T13:18:18;4.37;;;1.50;;
4630;SDS011;2328;48.170;11.602;2022-10-31T13:21:01;4.73;;;1.53;;
4630;SDS011;2328;48.170;11.602;2022-10-31T13:23:33;2.17;;;1.43;;
4630;SDS011;2328;48.170;11.602;2022-10-31T13:26:18;3.73;;;1.80;;
4630;SDS011;2328;48.170;11.602;2022-10-31T13:28:52;2.83;;;1.33;;
4630;SDS011;2328;48.170;11.602;2022-10-31T13:31:27;1.10;;;1.00;;
4630;SDS011;2328;48.170;11.602;2022-10-31T13:33:57;3.43;;;1.50;;
4630;SDS011;2328;48.170;11.602;2022-10-31T13:36:30;4.93;;;1.20;;
4630;SDS011;2328;48.170;11.602;2022-10-31T13:39:12;7.97;;;2.03;;
4630;SDS011;2328;48.170;11.602;2022-10-31T13:41:51;3.03;;;1.40;;
4630;SDS011;2328;48.170;11.602;2022-10-31T13:44:24;3.60;;;1.57;;
4630;SDS011;2328;48.170;11.602;2022-10-31T13:47:01;15.23;;;1.77;;
4630;SDS011;2328;48.170;11.602;2022-10-31T13:49:36;16.93;;;1.83;;
4630;SDS011;2328;48.170;11.602;2022-10-31T13:52:13;5.07;;;1.07;;
4630;SDS011;2328;48.170;11.602;2022-10-31T13:54:43;16.87;;;1.77;;
4630;SDS011;2328;48.170;11.602;2022-10-31T13:57:16;7.90;;;1.70;;
4630;SDS011;2328;48.170;11.602;2022-10-31T13:59:47;6.70;;;1.27;;
4630;SDS011;2328;48.170;11.602;2022-10-31T14:02:24;5.37;;;1.40;;
4630;SDS011;2328;48.170;11.602;2022-10-31T14:04:56;7.20;;;2.10;;
4630;SDS011;2328;48.170;11.602;2022-10-31T14:07:27;3.63;;;1.70;;
4630;SDS011;2328;48.170;11.602;2022-10-31T14:09:58;4.53;;;1.60;;
4630;SDS011;2328;48.170;11.602;2022-10-31T14:12:33;4.30;;;2.17;;
4630;SDS011;2328;48.170;11.602;2022-10-31T14:15:05;2.10;;;1.90;;
4630;SDS011;2328;48.170;11.602;2022-10-31T14:17:45;2.77;;;1.43;;
4630;SDS011;2328;48.170;11.602;2022-10-31T14:20:33;8.43;;;2.03;;
4630;SDS011;2328;48.170;11.602;2022-10-31T14:23:11;12.37;;;1.90;;
4630;SDS011;2328;48.170;11.602;2022-10-31T14:26:05;3.60;;;1.40;;
4630;SDS011;2328;48.170;11.602;2022-10-31T14:28:47;4.67;;;1.73;;
4630;SDS011;2328;48.170;11.602;2022-10-31T14:34:17;3.97;;;2.27;;
4630;SDS011;2328;48.170;11.602;2022-10-31T14:36:53;2.23;;;1.60;;
4630;SDS011;2328;48.170;11.602;2022-10-31T14:39:29;9.83;;;2.10;;
4630;SDS011;2328;48.170;11.602;2022-10-31T14:42:10;2.70;;;1.93;;
4630;SDS011;2328;48.170;11.602;2022-10-31T14:45:00;6.73;;;3.30;;
4630;SDS011;2328;48.170;11.602;2022-10-31T14:47:45;5.67;;;2.40;;
4630;SDS011;2328;48.170;11.602;2022-10-31T14:50:37;5.67;;;2.60;;
4630;SDS011;2328;48.170;11.602;2022-10-31T14:53:16;7.27;;;3.47;;
4630;SDS011;2328;48.170;11.602;2022-10-31T14:55:49;3.93;;;2.10;;
4630;SDS011;2328;48.170;11.602;2022-10-31T14:58:22;7.83;;;3.40;;
4630;SDS011;2328;48.170;11.602;2022-10-31T15:00:56;6.47;;;2.50;;
4630;SDS011;2328;48.170;11.602;2022-10-31T15:03:28;5.60;;;3.03;;
4630;SDS011;2328;48.170;11.602;2022-10-31T15:06:01;11.93;;;3.17;;
4630;SDS011;2328;48.170;11.602;2022-10-31T15:08:35;10.23;;;3.73;;
4630;SDS011;2328;48.170;11.602;2022-10-31T15:11:11;6.33;;;3.20;;
4630;SDS011;2328;48.170;11.602;2022-10-31T15:13:42;6.73;;;3.60;;
4630;SDS011;2328;48.170;11.602;2022-10-31T15:16:17;5.00;;;2.83;;
4630;SDS011;2328;48.170;11.602;2022-10-31T15:18:49;7.30;;;3.60;;
4630;SDS011;2328;48.170;11.602;2022-10-31T15:21:23;11.77;;;4.20;;
4630;SDS011;2328;48.170;11.602;2022-10-31T15:23:55;5.90;;;3.07;;
4630;SDS011;2328;48.170;11.602;2022-10-31T15:26:26;7.97;;;3.57;;
4630;SDS011;2328;48.170;11.602;2022-10-31T15:29:00;5.60;;;3.37;;
4630;SDS011;2328;48.170;11.602;2022-10-31T15:31:32;27.83;;;3.70;;
4630;SDS011;2328;48.170;11.602;2022-10-31T15:34:03;9.27;;;3.03;;
4630;SDS011;2328;48.170;11.602;2022-10-31T15:36:39;8.50;;;3.60;;
4630;SDS011;2328;48.170;11.602;2022-10-31T15:39:09;8.87;;;3.60;;
4630;SDS011;2328;48.170;11.602;2022-10-31T15:41:47;3.87;;;3.07;;
4630;SDS011;2328;48.170;11.602;2022-10-31T15:44:21;4.47;;;2.47;;